sensor_id;sensor_type;location;lat;lon;timestamp;P1;durP1;ratioP1;P2;durP2;ratioP2
5890;SDS011;2971;52.420;7.080;2023-01-28T00:01:07;16.07;;;14.50;;
5890;SDS011;2971;52.420;7.080;2023-01-28T00:03:33;20.53;;;18.47;;
5890;SDS011;2971;52.420;7.080;2023-01-28T00:06:02;18.97;;;17.07;;
5890;SDS011;2971;52.420;7.080;2023-01-28T00:08:29;16.07;;;14.63;;
5890;SDS011;2971;52.420;7.080;2023-01-28T00:10:57;17.47;;;15.73;;
5890;SDS011;2971;52.420;7.080;2023-01-28T00:13:23;16.60;;;15.13;;
5890;SDS011;2971;52.420;7.080;2023-01-28T00:15:53;16.60;;;15.10;;
5890;SDS011;2971;52.420;7.080;2023-01-28T00:18:23;16.97;;;15.53;;
5890;SDS011;2971;52.420;7.080;2023-01-28T00:23:41;16.80;;;15.20;;
5890;SDS011;2971;52.420;7.080;2023-01-28T00:26:12;17.47;;;15.77;;
5890;SDS011;2971;52.420;7.080;2023-01-28T00:28:38;18.97;;;17.10;;
5890;SDS011;2971;52.420;7.080;2023-01-28T00:31:05;19.50;;;17.60;;
5890;SDS011;2971;52.420;7.080;2023-01-28T00:33:35;19.80;;;18.00;;
5890;SDS011;2971;52.420;7.080;2023-01-28T00:36:01;19.30;;;17.53;;
5890;SDS011;2971;52.420;7.080;2023-01-28T00:38:28;18.77;;;17.00;;
5890;SDS011;2971;52.420;7.080;2023-01-28T00:40:54;19.93;;;18.00;;
5890;SDS011;2971;52.420;7.080;2023-01-28T00:43:19;19.63;;;17.83;;
5890;SDS011;2971;52.420;7.080;2023-01-28T00:45:45;19.53;;;17.80;;
5890;SDS011;2971;52.420;7.080;2023-01-28T00:48:11;20.27;;;18.37;;
5890;SDS011;2971;52.420;7.080;2023-01-28T00:50:36;19.70;;;17.90;;
5890;SDS011;2971;52.420;7.080;2023-01-28T00:53:03;20.77;;;18.90;;
5890;SDS011;2971;52.420;7.080;2023-01-28T00:55:29;18.83;;;17.13;;
5890;SDS011;2971;52.420;7.080;2023-01-28T00:57:54;19.13;;;17.43;;
5890;SDS011;2971;52.420;7.080;2023-01-28T01:00:19;19.60;;;17.87;;
5890;SDS011;2971;52.420;7.080;2023-01-28T01:02:49;18.77;;;17.17;;
5890;SDS011;2971;52.420;7.080;2023-01-28T01:05:16;18.77;;;17.17;;
5890;SDS011;2971;52.420;7.080;2023-01-28T01:07:42;18.23;;;16.53;;
5890;SDS011;2971;52.420;7.080;2023-01-28T01:10:15;19.00;;;17.37;;
5890;SDS011;2971;52.420;7.080;2023-01-28T01:12:42;17.67;;;16.00;;
5890;SDS011;2971;52.420;7.080;2023-01-28T01:15:08;18.10;;;16.60;;
5890;SDS011;2971;52.420;7.080;2023-01-28T01:17:38;18.43;;;16.87;;
5890;SDS011;2971;52.420;7.080;2023-01-28T01:20:05;17.80;;;16.10;;
5890;SDS011;2971;52.420;7.080;2023-01-28T01:22:35;18.80;;;17.13;;
5890;SDS011;2971;52.420;7.080;2023-01-28T01:25:03;17.40;;;15.90;;
5890;SDS011;2971;52.420;7.080;2023-01-28T01:27:29;18.10;;;16.50;;
5890;SDS011;2971;52.420;7.080;2023-01-28T01:29:55;17.10;;;15.60;;
5890;SDS011;2971;52.420;7.080;2023-01-28T01:32:21;17.63;;;16.00;;
5890;SDS011;2971;52.420;7.080;2023-01-28T01:34:47;17.27;;;15.70;;
5890;SDS011;2971;52.420;7.080;2023-01-28T01:37:12;17.70;;;16.13;;
5890;SDS011;2971;52.420;7.080;2023-01-28T01:39:38;18.00;;;16.47;;
5890;SDS011;2971;52.420;7.080;2023-01-28T01:42:03;17.20;;;15.60;;
5890;SDS011;2971;52.420;7.080;2023-01-28T01:47:18;17.57;;;15.87;;
5890;SDS011;2971;52.420;7.080;2023-01-28T01:49:45;18.27;;;16.67;;
5890;SDS011;2971;52.420;7.080;2023-01-28T01:52:12;17.63;;;16.07;;
5890;SDS011;2971;52.420;7.080;2023-01-28T01:54:41;17.90;;;16.27;;
5890;SDS011;2971;52.420;7.080;2023-01-28T01:57:08;17.80;;;16.20;;
5890;SDS011;2971;52.420;7.080;2023-01-28T01:59:35;17.73;;;16.17;;
5890;SDS011;2971;52.420;7.080;2023-01-28T02:02:03;18.70;;;17.00;;
5890;SDS011;2971;52.420;7.080;2023-01-28T02:04:30;18.77;;;17.07;;
5890;SDS011;2971;52.420;7.080;2023-01-28T02:06:58;19.00;;;17.30;;
5890;SDS011;2971;52.420;7.080;2023-01-28T02:09:31;18.30;;;16.60;;
5890;SDS011;2971;52.420;7.080;2023-01-28T02:12:00;19.70;;;18.00;;
5890;SDS011;2971;52.420;7.080;2023-01-28T02:14:29;19.97;;;18.10;;
5890;SDS011;2971;52.420;7.080;2023-01-28T02:16:56;18.97;;;17.17;;
5890;SDS011;2971;52.420;7.080;2023-01-28T02:19:23;20.70;;;18.80;;
5890;SDS011;2971;52.420;7.080;2023-01-28T02:30:34;20.50;;;18.50;;
5890;SDS011;2971;52.420;7.080;2023-01-28T02:33:04;20.23;;;18.13;;
5890;SDS011;2971;52.420;7.080;2023-01-28T02:35:52;20.77;;;18.87;;
5890;SDS011;2971;52.420;7.080;2023-01-28T02:40:51;19.83;;;18.03;;
5890;SDS011;2971;52.420;7.080;2023-01-28T02:43:29;19.70;;;17.80;;
5890;SDS011;2971;52.420;7.080;2023-01-28T02:49:15;20.13;;;18.33;;
5890;SDS011;2971;52.420;7.080;2023-01-28T02:54:25;20.57;;;18.87;;
5890;SDS011;2971;52.420;7.080;2023-01-28T02:57:26;20.47;;;18.67;;
5890;SDS011;2971;52.420;7.080;2023-01-28T03:02:55;19.03;;;17.33;;
5890;SDS011;2971;52.420;7.080;2023-01-28T03:05:32;21.20;;;19.30;;
5890;SDS011;2971;52.420;7.080;2023-01-28T03:08:01;19.17;;;17.40;;
5890;SDS011;2971;52.420;7.080;2023-01-28T03:10:48;19.97;;;18.07;;
5890;SDS011;2971;52.420;7.080;2023-01-28T03:13:33;19.97;;;18.10;;
5890;SDS011;2971;52.420;7.080;2023-01-28T03:16:17;19.90;;;18.07;;
5890;SDS011;2971;52.420;7.080;2023-01-28T03:19:01;19.93;;;18.07;;
5890;SDS011;2971;52.420;7.080;2023-01-28T03:21:45;20.83;;;18.83;;
5890;SDS011;2971;52.420;7.080;2023-01-28T03:24:31;19.17;;;17.33;;
5890;SDS011;2971;52.420;7.080;2023-01-28T03:27:20;20.63;;;18.67;;
5890;SDS011;2971;52.420;7.080;2023-01-28T03:30:13;21.73;;;19.50;;
5890;SDS011;2971;52.420;7.080;2023-01-28T03:33:00;21.90;;;19.77;;
5890;SDS011;2971;52.420;7.080;2023-01-28T03:35:46;21.33;;;19.20;;
5890;SDS011;2971;52.420;7.080;2023-01-28T03:38:30;21.10;;;19.10;;
5890;SDS011;2971;52.420;7.080;2023-01-28T03:41:02;19.67;;;17.73;;
5890;SDS011;2971;52.420;7.080;2023-01-28T03:43:28;19.17;;;17.37;;
5890;SDS011;2971;52.420;7.080;2023-01-28T03:45:54;18.27;;;16.47;;
5890;SDS011;2971;52.420;7.080;2023-01-28T03:48:20;17.80;;;16.07;;
5890;SDS011;2971;52.420;7.080;2023-01-28T03:50:47;17.10;;;15.40;;
5890;SDS011;2971;52.420;7.080;2023-01-28T03:53:15;16.67;;;15.07;;
5890;SDS011;2971;52.420;7.080;2023-01-28T03:55:41;15.03;;;13.63;;
5890;SDS011;2971;52.420;7.080;2023-01-28T03:58:10;15.17;;;13.77;;
5890;SDS011;2971;52.420;7.080;2023-01-28T04:00:36;14.97;;;13.47;;
5890;SDS011;2971;52.420;7.080;2023-01-28T04:03:06;16.03;;;14.43;;
5890;SDS011;2971;52.420;7.080;2023-01-28T04:05:40;18.57;;;16.70;;
5890;SDS011;2971;52.420;7.080;2023-01-28T04:08:25;18.83;;;16.90;;
5890;SDS011;2971;52.420;7.080;2023-01-28T04:10:50;18.10;;;16.27;;
5890;SDS011;2971;52.420;7.080;2023-01-28T04:13:16;18.97;;;17.07;;
5890;SDS011;2971;52.420;7.080;2023-01-28T04:15:42;18.10;;;15.93;;
5890;SDS011;2971;52.420;7.080;2023-01-28T04:18:08;17.57;;;15.83;;
5890;SDS011;2971;52.420;7.080;2023-01-28T04:20:34;18.47;;;16.60;;
5890;SDS011;2971;52.420;7.080;2023-01-28T04:23:00;19.03;;;17.13;;
5890;SDS011;2971;52.420;7.080;2023-01-28T04:25:25;19.17;;;17.17;;
5890;SDS011;2971;52.420;7.080;2023-01-28T04:27:51;19.07;;;17.07;;
5890;SDS011;2971;52.420;7.080;2023-01-28T04:30:17;20.27;;;18.27;;
5890;SDS011;2971;52.420;7.080;2023-01-28T04:32:43;18.87;;;16.87;;
5890;SDS011;2971;52.420;7.080;2023-01-28T04:35:10;19.13;;;17.03;;
5890;SDS011;2971;52.420;7.080;2023-01-28T04:37:35;18.63;;;16.77;;
5890;SDS011;2971;52.420;7.080;2023-01-28T04:40:01;19.40;;;17.50;;
5890;SDS011;2971;52.420;7.080;2023-01-28T04:42:26;18.90;;;17.00;;
5890;SDS011;2971;52.420;7.080;2023-01-28T04:44:51;19.70;;;17.70;;
5890;SDS011;2971;52.420;7.080;2023-01-28T04:47:17;20.00;;;17.97;;
5890;SDS011;2971;52.420;7.080;2023-01-28T04:49:44;20.43;;;18.37;;
5890;SDS011;2971;52.420;7.080;2023-01-28T04:52:09;19.10;;;17.20;;
5890;SDS011;2971;52.420;7.080;2023-01-28T04:54:35;19.63;;;17.57;;
5890;SDS011;2971;52.420;7.080;2023-01-28T04:57:00;18.00;;;16.20;;
5890;SDS011;2971;52.420;7.080;2023-01-28T04:59:26;17.37;;;15.60;;
5890;SDS011;2971;52.420;7.080;2023-01-28T05:01:51;18.90;;;16.90;;
5890;SDS011;2971;52.420;7.080;2023-01-28T05:04:16;19.77;;;17.73;;
5890;SDS011;2971;52.420;7.080;2023-01-28T05:06:42;18.50;;;16.53;;
5890;SDS011;2971;52.420;7.080;2023-01-28T05:09:07;18.87;;;16.87;;
5890;SDS011;2971;52.420;7.080;2023-01-28T05:11:33;17.80;;;16.00;;
5890;SDS011;2971;52.420;7.080;2023-01-28T05:13:58;17.83;;;15.77;;
5890;SDS011;2971;52.420;7.080;2023-01-28T05:16:24;18.87;;;16.73;;
5890;SDS011;2971;52.420;7.080;2023-01-28T05:18:49;17.90;;;16.00;;
5890;SDS011;2971;52.420;7.080;2023-01-28T05:21:15;19.33;;;17.23;;
5890;SDS011;2971;52.420;7.080;2023-01-28T05:23:41;19.17;;;17.17;;
5890;SDS011;2971;52.420;7.080;2023-01-28T05:26:07;18.93;;;16.60;;
5890;SDS011;2971;52.420;7.080;2023-01-28T05:28:32;18.97;;;16.53;;
5890;SDS011;2971;52.420;7.080;2023-01-28T05:31:02;18.70;;;16.77;;
5890;SDS011;2971;52.420;7.080;2023-01-28T05:33:28;17.53;;;15.77;;
5890;SDS011;2971;52.420;7.080;2023-01-28T05:35:53;17.77;;;15.37;;
5890;SDS011;2971;52.420;7.080;2023-01-28T05:38:19;19.17;;;16.57;;
5890;SDS011;2971;52.420;7.080;2023-01-28T05:40:45;18.37;;;15.67;;
5890;SDS011;2971;52.420;7.080;2023-01-28T05:43:11;16.93;;;15.20;;
5890;SDS011;2971;52.420;7.080;2023-01-28T05:45:36;16.67;;;15.00;;
5890;SDS011;2971;52.420;7.080;2023-01-28T05:48:02;16.70;;;14.93;;
5890;SDS011;2971;52.420;7.080;2023-01-28T05:50:28;18.10;;;16.20;;
5890;SDS011;2971;52.420;7.080;2023-01-28T05:52:53;16.60;;;14.83;;
5890;SDS011;2971;52.420;7.080;2023-01-28T05:55:19;17.57;;;15.67;;
5890;SDS011;2971;52.420;7.080;2023-01-28T05:57:44;17.60;;;15.93;;
5890;SDS011;2971;52.420;7.080;2023-01-28T06:00:10;17.80;;;15.90;;
5890;SDS011;2971;52.420;7.080;2023-01-28T06:02:36;18.10;;;16.30;;
5890;SDS011;2971;52.420;7.080;2023-01-28T06:05:01;17.97;;;16.17;;
5890;SDS011;2971;52.420;7.080;2023-01-28T06:07:27;16.93;;;15.27;;
5890;SDS011;2971;52.420;7.080;2023-01-28T06:09:52;19.00;;;17.10;;
5890;SDS011;2971;52.420;7.080;2023-01-28T06:12:17;16.80;;;15.10;;
5890;SDS011;2971;52.420;7.080;2023-01-28T06:14:43;18.13;;;16.33;;
5890;SDS011;2971;52.420;7.080;2023-01-28T06:17:08;17.17;;;15.47;;
5890;SDS011;2971;52.420;7.080;2023-01-28T06:19:34;17.13;;;15.43;;
5890;SDS011;2971;52.420;7.080;2023-01-28T06:21:59;15.90;;;14.30;;
5890;SDS011;2971;52.420;7.080;2023-01-28T06:24:25;15.80;;;14.17;;
5890;SDS011;2971;52.420;7.080;2023-01-28T06:26:50;14.90;;;13.40;;
5890;SDS011;2971;52.420;7.080;2023-01-28T06:29:16;13.43;;;12.23;;
5890;SDS011;2971;52.420;7.080;2023-01-28T06:31:41;12.97;;;11.77;;
5890;SDS011;2971;52.420;7.080;2023-01-28T06:34:07;13.63;;;12.27;;
5890;SDS011;2971;52.420;7.080;2023-01-28T06:36:34;13.77;;;12.43;;
5890;SDS011;2971;52.420;7.080;2023-01-28T06:39:00;12.97;;;11.87;;
5890;SDS011;2971;52.420;7.080;2023-01-28T06:41:25;13.63;;;12.43;;
5890;SDS011;2971;52.420;7.080;2023-01-28T06:43:50;13.60;;;12.40;;
5890;SDS011;2971;52.420;7.080;2023-01-28T06:46:16;13.90;;;12.50;;
5890;SDS011;2971;52.420;7.080;2023-01-28T06:48:41;13.57;;;12.37;;
5890;SDS011;2971;52.420;7.080;2023-01-28T06:51:07;14.10;;;12.80;;
5890;SDS011;2971;52.420;7.080;2023-01-28T06:53:32;13.87;;;12.63;;
5890;SDS011;2971;52.420;7.080;2023-01-28T06:55:57;13.70;;;12.50;;
5890;SDS011;2971;52.420;7.080;2023-01-28T06:58:23;13.97;;;12.77;;
5890;SDS011;2971;52.420;7.080;2023-01-28T07:00:48;13.37;;;12.17;;
5890;SDS011;2971;52.420;7.080;2023-01-28T07:03:14;13.70;;;12.50;;
5890;SDS011;2971;52.420;7.080;2023-01-28T07:05:39;13.27;;;12.07;;
5890;SDS011;2971;52.420;7.080;2023-01-28T07:08:05;13.53;;;12.40;;
5890;SDS011;2971;52.420;7.080;2023-01-28T07:10:30;13.77;;;12.57;;
5890;SDS011;2971;52.420;7.080;2023-01-28T07:12:56;13.73;;;12.53;;
5890;SDS011;2971;52.420;7.080;2023-01-28T07:15:21;14.67;;;12.87;;
5890;SDS011;2971;52.420;7.080;2023-01-28T07:17:46;14.23;;;13.03;;
5890;SDS011;2971;52.420;7.080;2023-01-28T07:20:12;13.87;;;12.87;;
5890;SDS011;2971;52.420;7.080;2023-01-28T07:22:39;13.57;;;12.40;;
5890;SDS011;2971;52.420;7.080;2023-01-28T07:25:06;13.50;;;12.30;;
5890;SDS011;2971;52.420;7.080;2023-01-28T07:27:32;13.57;;;12.27;;
5890;SDS011;2971;52.420;7.080;2023-01-28T07:29:57;14.13;;;12.93;;
5890;SDS011;2971;52.420;7.080;2023-01-28T07:32:23;13.10;;;11.90;;
5890;SDS011;2971;52.420;7.080;2023-01-28T07:34:50;13.97;;;12.57;;
5890;SDS011;2971;52.420;7.080;2023-01-28T07:37:16;12.70;;;11.50;;
5890;SDS011;2971;52.420;7.080;2023-01-28T07:39:41;12.67;;;11.60;;
5890;SDS011;2971;52.420;7.080;2023-01-28T07:42:07;13.03;;;11.67;;
5890;SDS011;2971;52.420;7.080;2023-01-28T07:44:32;12.93;;;11.83;;
5890;SDS011;2971;52.420;7.080;2023-01-28T07:46:59;12.80;;;11.70;;
5890;SDS011;2971;52.420;7.080;2023-01-28T07:49:26;12.37;;;11.27;;
5890;SDS011;2971;52.420;7.080;2023-01-28T07:51:51;12.67;;;11.57;;
5890;SDS011;2971;52.420;7.080;2023-01-28T07:54:16;12.93;;;11.67;;
5890;SDS011;2971;52.420;7.080;2023-01-28T07:56:42;13.70;;;12.53;;
5890;SDS011;2971;52.420;7.080;2023-01-28T07:59:07;14.00;;;12.80;;
5890;SDS011;2971;52.420;7.080;2023-01-28T08:01:33;13.90;;;12.60;;
5890;SDS011;2971;52.420;7.080;2023-01-28T08:03:58;13.97;;;12.67;;
5890;SDS011;2971;52.420;7.080;2023-01-28T08:06:23;14.07;;;12.87;;
5890;SDS011;2971;52.420;7.080;2023-01-28T08:08:49;14.53;;;13.20;;
5890;SDS011;2971;52.420;7.080;2023-01-28T08:11:14;16.67;;;15.17;;
5890;SDS011;2971;52.420;7.080;2023-01-28T08:13:40;15.57;;;14.17;;
5890;SDS011;2971;52.420;7.080;2023-01-28T08:16:05;16.73;;;15.03;;
5890;SDS011;2971;52.420;7.080;2023-01-28T08:18:31;14.73;;;13.43;;
5890;SDS011;2971;52.420;7.080;2023-01-28T08:20:57;16.87;;;15.37;;
5890;SDS011;2971;52.420;7.080;2023-01-28T08:23:23;15.40;;;14.10;;
5890;SDS011;2971;52.420;7.080;2023-01-28T08:25:51;15.43;;;14.00;;
5890;SDS011;2971;52.420;7.080;2023-01-28T08:28:17;15.27;;;13.87;;
5890;SDS011;2971;52.420;7.080;2023-01-28T08:30:43;14.80;;;13.53;;
5890;SDS011;2971;52.420;7.080;2023-01-28T08:33:09;14.13;;;12.83;;
5890;SDS011;2971;52.420;7.080;2023-01-28T08:35:35;14.63;;;13.33;;
5890;SDS011;2971;52.420;7.080;2023-01-28T08:38:01;14.93;;;13.37;;
5890;SDS011;2971;52.420;7.080;2023-01-28T08:40:28;14.93;;;13.53;;
5890;SDS011;2971;52.420;7.080;2023-01-28T08:42:53;13.80;;;12.47;;
5890;SDS011;2971;52.420;7.080;2023-01-28T08:45:20;14.37;;;13.13;;
5890;SDS011;2971;52.420;7.080;2023-01-28T08:50:31;15.10;;;13.80;;
5890;SDS011;2971;52.420;7.080;2023-01-28T08:52:59;14.67;;;13.30;;
5890;SDS011;2971;52.420;7.080;2023-01-28T08:55:35;14.67;;;13.37;;
5890;SDS011;2971;52.420;7.080;2023-01-28T08:58:01;15.70;;;14.30;;
5890;SDS011;2971;52.420;7.080;2023-01-28T09:00:27;15.87;;;14.33;;
5890;SDS011;2971;52.420;7.080;2023-01-28T09:02:53;16.83;;;14.73;;
5890;SDS011;2971;52.420;7.080;2023-01-28T09:05:19;17.53;;;14.83;;
5890;SDS011;2971;52.420;7.080;2023-01-28T09:07:44;16.27;;;14.87;;
5890;SDS011;2971;52.420;7.080;2023-01-28T09:10:10;16.50;;;14.97;;
5890;SDS011;2971;52.420;7.080;2023-01-28T09:12:36;17.17;;;15.50;;
5890;SDS011;2971;52.420;7.080;2023-01-28T09:15:02;17.37;;;15.63;;
5890;SDS011;2971;52.420;7.080;2023-01-28T09:17:27;17.27;;;15.20;;
5890;SDS011;2971;52.420;7.080;2023-01-28T09:19:53;17.57;;;15.87;;
5890;SDS011;2971;52.420;7.080;2023-01-28T09:22:19;17.57;;;15.87;;
5890;SDS011;2971;52.420;7.080;2023-01-28T09:24:44;18.47;;;16.47;;
5890;SDS011;2971;52.420;7.080;2023-01-28T09:27:09;18.20;;;16.40;;
5890;SDS011;2971;52.420;7.080;2023-01-28T09:29:35;15.20;;;13.70;;
5890;SDS011;2971;52.420;7.080;2023-01-28T09:32:02;15.23;;;13.77;;
5890;SDS011;2971;52.420;7.080;2023-01-28T09:34:27;19.03;;;15.17;;
5890;SDS011;2971;52.420;7.080;2023-01-28T09:36:53;14.90;;;13.40;;
5890;SDS011;2971;52.420;7.080;2023-01-28T09:39:18;14.30;;;12.87;;
5890;SDS011;2971;52.420;7.080;2023-01-28T09:47:50;14.13;;;12.73;;
5890;SDS011;2971;52.420;7.080;2023-01-28T09:50:19;14.53;;;13.13;;
5890;SDS011;2971;52.420;7.080;2023-01-28T09:52:49;13.20;;;12.10;;
5890;SDS011;2971;52.420;7.080;2023-01-28T09:55:21;12.47;;;11.33;;
5890;SDS011;2971;52.420;7.080;2023-01-28T09:57:57;13.23;;;12.03;;
5890;SDS011;2971;52.420;7.080;2023-01-28T10:00:25;13.07;;;11.87;;
5890;SDS011;2971;52.420;7.080;2023-01-28T10:06:02;13.70;;;12.40;;
5890;SDS011;2971;52.420;7.080;2023-01-28T10:16:49;15.10;;;13.67;;
5890;SDS011;2971;52.420;7.080;2023-01-28T10:19:26;15.47;;;13.97;;
5890;SDS011;2971;52.420;7.080;2023-01-28T10:26:56;13.87;;;12.50;;
5890;SDS011;2971;52.420;7.080;2023-01-28T10:29:22;13.23;;;12.03;;
5890;SDS011;2971;52.420;7.080;2023-01-28T10:34:19;13.33;;;12.03;;
5890;SDS011;2971;52.420;7.080;2023-01-28T10:36:46;13.70;;;12.33;;
5890;SDS011;2971;52.420;7.080;2023-01-28T10:39:15;13.20;;;12.00;;
5890;SDS011;2971;52.420;7.080;2023-01-28T10:41:41;13.60;;;12.30;;
5890;SDS011;2971;52.420;7.080;2023-01-28T10:44:15;13.80;;;12.40;;
5890;SDS011;2971;52.420;7.080;2023-01-28T10:46:44;13.43;;;12.07;;
5890;SDS011;2971;52.420;7.080;2023-01-28T10:49:14;13.23;;;12.03;;
5890;SDS011;2971;52.420;7.080;2023-01-28T10:51:42;13.30;;;12.10;;
5890;SDS011;2971;52.420;7.080;2023-01-28T10:54:18;13.30;;;12.00;;
5890;SDS011;2971;52.420;7.080;2023-01-28T10:56:49;13.17;;;12.00;;
5890;SDS011;2971;52.420;7.080;2023-01-28T11:02:00;13.97;;;12.57;;
5890;SDS011;2971;52.420;7.080;2023-01-28T11:04:32;13.93;;;12.63;;
5890;SDS011;2971;52.420;7.080;2023-01-28T11:09:32;14.90;;;13.47;;
5890;SDS011;2971;52.420;7.080;2023-01-28T11:12:09;14.60;;;13.20;;
5890;SDS011;2971;52.420;7.080;2023-01-28T11:14:35;22.67;;;19.60;;
5890;SDS011;2971;52.420;7.080;2023-01-28T11:17:01;13.77;;;12.37;;
5890;SDS011;2971;52.420;7.080;2023-01-28T11:19:28;16.30;;;14.88;;
5890;SDS011;2971;52.420;7.080;2023-01-28T11:21:58;15.00;;;13.67;;
5890;SDS011;2971;52.420;7.080;2023-01-28T11:24:25;15.35;;;13.95;;
5890;SDS011;2971;52.420;7.080;2023-01-28T11:26:55;14.70;;;13.30;;
5890;SDS011;2971;52.420;7.080;2023-01-28T11:29:31;15.00;;;13.60;;
5890;SDS011;2971;52.420;7.080;2023-01-28T11:31:58;15.83;;;14.33;;
5890;SDS011;2971;52.420;7.080;2023-01-28T11:34:25;15.93;;;14.43;;
5890;SDS011;2971;52.420;7.080;2023-01-28T11:42:49;14.30;;;12.90;;
5890;SDS011;2971;52.420;7.080;2023-01-28T11:45:17;13.73;;;12.47;;
5890;SDS011;2971;52.420;7.080;2023-01-28T11:47:47;14.03;;;12.53;;
5890;SDS011;2971;52.420;7.080;2023-01-28T11:56:00;13.93;;;12.43;;
5890;SDS011;2971;52.420;7.080;2023-01-28T12:06:36;14.07;;;12.57;;
5890;SDS011;2971;52.420;7.080;2023-01-28T12:09:30;14.27;;;12.97;;
5890;SDS011;2971;52.420;7.080;2023-01-28T12:41:39;12.07;;;10.93;;
5890;SDS011;2971;52.420;7.080;2023-01-28T12:44:19;12.10;;;11.00;;
5890;SDS011;2971;52.420;7.080;2023-01-28T12:46:53;11.50;;;10.50;;
5890;SDS011;2971;52.420;7.080;2023-01-28T12:49:23;13.70;;;12.50;;
5890;SDS011;2971;52.420;7.080;2023-01-28T12:51:58;13.10;;;11.70;;
5890;SDS011;2971;52.420;7.080;2023-01-28T12:54:30;13.03;;;11.83;;
5890;SDS011;2971;52.420;7.080;2023-01-28T12:56:59;13.07;;;11.77;;
5890;SDS011;2971;52.420;7.080;2023-01-28T12:59:37;13.20;;;11.80;;
5890;SDS011;2971;52.420;7.080;2023-01-28T13:07:08;13.87;;;12.57;;
5890;SDS011;2971;52.420;7.080;2023-01-28T13:09:36;13.90;;;12.50;;
5890;SDS011;2971;52.420;7.080;2023-01-28T13:12:03;14.23;;;12.83;;
5890;SDS011;2971;52.420;7.080;2023-01-28T13:14:31;14.07;;;12.80;;
5890;SDS011;2971;52.420;7.080;2023-01-28T13:19:57;14.27;;;12.80;;
5890;SDS011;2971;52.420;7.080;2023-01-28T13:22:33;13.23;;;11.93;;
5890;SDS011;2971;52.420;7.080;2023-01-28T13:30:48;12.40;;;11.30;;
5890;SDS011;2971;52.420;7.080;2023-01-28T13:33:31;12.80;;;11.07;;
5890;SDS011;2971;52.420;7.080;2023-01-28T13:36:00;12.03;;;10.93;;
5890;SDS011;2971;52.420;7.080;2023-01-28T13:38:27;12.50;;;11.30;;
5890;SDS011;2971;52.420;7.080;2023-01-28T13:40:58;11.77;;;10.70;;
5890;SDS011;2971;52.420;7.080;2023-01-28T13:46:03;26.27;;;20.77;;
5890;SDS011;2971;52.420;7.080;2023-01-28T13:48:43;12.30;;;11.10;;
5890;SDS011;2971;52.420;7.080;2023-01-28T13:51:14;11.80;;;10.70;;
5890;SDS011;2971;52.420;7.080;2023-01-28T13:54:18;11.10;;;10.00;;
5890;SDS011;2971;52.420;7.080;2023-01-28T14:01:58;10.77;;;9.70;;
5890;SDS011;2971;52.420;7.080;2023-01-28T14:07:32;11.30;;;10.30;;
5890;SDS011;2971;52.420;7.080;2023-01-28T14:12:48;13.03;;;11.83;;
5890;SDS011;2971;52.420;7.080;2023-01-28T14:18:26;12.87;;;11.60;;
5890;SDS011;2971;52.420;7.080;2023-01-28T14:20:55;12.90;;;11.50;;
5890;SDS011;2971;52.420;7.080;2023-01-28T14:23:21;13.20;;;11.47;;
5890;SDS011;2971;52.420;7.080;2023-01-28T14:28:44;13.50;;;12.27;;
5890;SDS011;2971;52.420;7.080;2023-01-28T14:31:31;12.60;;;11.40;;
5890;SDS011;2971;52.420;7.080;2023-01-28T14:34:04;13.00;;;11.60;;
5890;SDS011;2971;52.420;7.080;2023-01-28T14:36:38;13.13;;;11.90;;
5890;SDS011;2971;52.420;7.080;2023-01-28T14:39:05;13.93;;;12.43;;
5890;SDS011;2971;52.420;7.080;2023-01-28T14:41:35;14.70;;;13.20;;
5890;SDS011;2971;52.420;7.080;2023-01-28T14:44:01;13.90;;;12.60;;
5890;SDS011;2971;52.420;7.080;2023-01-28T14:46:42;13.53;;;12.07;;
5890;SDS011;2971;52.420;7.080;2023-01-28T14:59:51;13.23;;;11.93;;
5890;SDS011;2971;52.420;7.080;2023-01-28T15:02:19;14.30;;;12.90;;
5890;SDS011;2971;52.420;7.080;2023-01-28T15:04:49;13.60;;;12.30;;
5890;SDS011;2971;52.420;7.080;2023-01-28T15:07:16;13.20;;;12.00;;
5890;SDS011;2971;52.420;7.080;2023-01-28T15:09:44;14.23;;;12.83;;
5890;SDS011;2971;52.420;7.080;2023-01-28T15:12:09;14.17;;;12.77;;
5890;SDS011;2971;52.420;7.080;2023-01-28T15:14:35;40.13;;;32.23;;
5890;SDS011;2971;52.420;7.080;2023-01-28T15:17:01;16.00;;;14.30;;
5890;SDS011;2971;52.420;7.080;2023-01-28T15:19:31;13.90;;;12.43;;
5890;SDS011;2971;52.420;7.080;2023-01-28T15:22:00;17.67;;;15.80;;
5890;SDS011;2971;52.420;7.080;2023-01-28T15:24:26;14.47;;;12.97;;
5890;SDS011;2971;52.420;7.080;2023-01-28T15:26:52;14.93;;;13.33;;
5890;SDS011;2971;52.420;7.080;2023-01-28T15:29:22;15.27;;;13.73;;
5890;SDS011;2971;52.420;7.080;2023-01-28T15:31:49;15.47;;;13.90;;
5890;SDS011;2971;52.420;7.080;2023-01-28T15:34:16;14.40;;;13.00;;
5890;SDS011;2971;52.420;7.080;2023-01-28T15:36:43;14.33;;;12.53;;
5890;SDS011;2971;52.420;7.080;2023-01-28T15:39:13;15.00;;;13.50;;
5890;SDS011;2971;52.420;7.080;2023-01-28T15:41:40;15.47;;;13.27;;
5890;SDS011;2971;52.420;7.080;2023-01-28T15:44:18;15.27;;;13.67;;
5890;SDS011;2971;52.420;7.080;2023-01-28T15:46:53;14.37;;;12.87;;
5890;SDS011;2971;52.420;7.080;2023-01-28T15:49:19;14.60;;;12.97;;
5890;SDS011;2971;52.420;7.080;2023-01-28T15:51:47;14.77;;;13.27;;
5890;SDS011;2971;52.420;7.080;2023-01-28T15:54:15;16.37;;;13.83;;
5890;SDS011;2971;52.420;7.080;2023-01-28T15:56:41;15.47;;;13.87;;
5890;SDS011;2971;52.420;7.080;2023-01-28T15:59:07;16.00;;;14.20;;
5890;SDS011;2971;52.420;7.080;2023-01-28T16:01:34;16.63;;;14.37;;
5890;SDS011;2971;52.420;7.080;2023-01-28T16:04:01;18.20;;;15.47;;
5890;SDS011;2971;52.420;7.080;2023-01-28T16:06:35;16.83;;;13.93;;
5890;SDS011;2971;52.420;7.080;2023-01-28T16:09:03;15.73;;;14.03;;
5890;SDS011;2971;52.420;7.080;2023-01-28T16:14:02;18.83;;;15.10;;
5890;SDS011;2971;52.420;7.080;2023-01-28T16:16:32;16.90;;;14.90;;
5890;SDS011;2971;52.420;7.080;2023-01-28T16:18:59;17.20;;;14.77;;
5890;SDS011;2971;52.420;7.080;2023-01-28T16:21:44;16.30;;;14.60;;
5890;SDS011;2971;52.420;7.080;2023-01-28T16:24:21;17.73;;;15.00;;
5890;SDS011;2971;52.420;7.080;2023-01-28T16:27:03;20.43;;;16.23;;
5890;SDS011;2971;52.420;7.080;2023-01-28T16:29:44;18.17;;;15.90;;
5890;SDS011;2971;52.420;7.080;2023-01-28T16:35:03;22.03;;;18.93;;
5890;SDS011;2971;52.420;7.080;2023-01-28T16:37:36;21.23;;;16.97;;
5890;SDS011;2971;52.420;7.080;2023-01-28T16:40:01;20.37;;;18.20;;
5890;SDS011;2971;52.420;7.080;2023-01-28T16:42:27;21.57;;;18.47;;
5890;SDS011;2971;52.420;7.080;2023-01-28T16:44:52;21.87;;;17.97;;
5890;SDS011;2971;52.420;7.080;2023-01-28T16:47:18;21.80;;;18.27;;
5890;SDS011;2971;52.420;7.080;2023-01-28T16:49:43;20.37;;;17.60;;
5890;SDS011;2971;52.420;7.080;2023-01-28T16:52:10;19.13;;;16.93;;
5890;SDS011;2971;52.420;7.080;2023-01-28T16:54:36;21.03;;;17.73;;
5890;SDS011;2971;52.420;7.080;2023-01-28T16:57:01;20.27;;;17.23;;
5890;SDS011;2971;52.420;7.080;2023-01-28T16:59:27;19.43;;;16.80;;
5890;SDS011;2971;52.420;7.080;2023-01-28T17:01:52;21.07;;;17.73;;
5890;SDS011;2971;52.420;7.080;2023-01-28T17:04:18;20.87;;;17.07;;
5890;SDS011;2971;52.420;7.080;2023-01-28T17:06:44;21.87;;;17.67;;
5890;SDS011;2971;52.420;7.080;2023-01-28T17:09:10;20.40;;;17.70;;
5890;SDS011;2971;52.420;7.080;2023-01-28T17:11:38;22.50;;;19.23;;
5890;SDS011;2971;52.420;7.080;2023-01-28T17:14:04;22.80;;;18.27;;
5890;SDS011;2971;52.420;7.080;2023-01-28T17:16:30;23.23;;;19.47;;
5890;SDS011;2971;52.420;7.080;2023-01-28T17:18:56;22.70;;;19.73;;
5890;SDS011;2971;52.420;7.080;2023-01-28T17:21:21;23.00;;;19.60;;
5890;SDS011;2971;52.420;7.080;2023-01-28T17:23:47;25.47;;;19.17;;
5890;SDS011;2971;52.420;7.080;2023-01-28T17:26:13;21.43;;;19.07;;
5890;SDS011;2971;52.420;7.080;2023-01-28T17:28:40;21.17;;;18.17;;
5890;SDS011;2971;52.420;7.080;2023-01-28T17:31:09;20.77;;;18.43;;
5890;SDS011;2971;52.420;7.080;2023-01-28T17:33:37;23.83;;;19.67;;